Time;durP1;ratioP1;P1;durP2;ratioP2;P2;SDS_P1;SDS_P2;PMS_P1;PMS_P2;Temp;Humidity;BMP_temperature;BMP_pressure;BME280_temperature;BME280_humidity;BME280_pressure;Samples;Min_cycle;Max_cycle;Signal;HPM_P1;HPM_P2
2022/10/06 00:00:27;;;;;;;7.63;1.77;;;;;;;12.82;100.00;101994.94;5011715;28;20029;-71
2022/10/06 00:02:53;;;;;;;9.10;2.13;;;;;;;12.79;100.00;102001.66;5013253;28;20080;-70
2022/10/06 00:05:18;;;;;;;9.45;1.88;;;;;;;12.75;100.00;102005.81;5034174;28;20032;-69
2022/10/06 00:07:43;;;;;;;10.88;1.95;;;;;;;12.74;100.00;102006.84;5024491;28;20036;-72
2022/10/06 00:10:08;;;;;;;11.85;2.13;;;;;;;12.73;100.00;102016.91;5013883;28;20057;-71
2022/10/06 00:12:42;;;;;;;11.70;2.08;;;;;;;12.74;100.00;102026.72;5012764;28;20026;-72
2022/10/06 00:15:09;;;;;;;11.13;1.80;;;;;;;12.70;100.00;102032.78;5024583;28;20037;-71
2022/10/06 00:17:35;;;;;;;12.82;2.58;;;;;;;12.67;100.00;102044.06;5014077;28;20022;-73
2022/10/06 00:20:00;;;;;;;9.55;2.10;;;;;;;12.68;100.00;102034.84;5014243;28;20018;-74
2022/10/06 00:22:32;;;;;;;7.88;1.95;;;;;;;12.61;100.00;102042.19;5013342;28;20397;-70
2022/10/06 00:24:57;;;;;;;8.70;1.88;;;;;;;12.61;100.00;102043.03;5013611;28;20040;-69
2022/10/06 00:27:23;;;;;;;9.30;1.67;;;;;;;12.58;100.00;102049.69;5026739;28;20116;-72
2022/10/06 00:29:48;;;;;;;5.35;1.27;;;;;;;12.57;100.00;102052.63;5033366;28;20032;-71
2022/10/06 00:32:13;;;;;;;9.98;1.77;;;;;;;12.57;100.00;102058.06;5033414;28;20464;-71
2022/10/06 00:34:38;;;;;;;11.63;2.10;;;;;;;12.51;100.00;102053.47;5032279;28;20099;-73
2022/10/06 00:37:04;;;;;;;6.95;1.90;;;;;;;12.51;100.00;102065.16;5031793;28;20021;-72
2022/10/06 00:39:29;;;;;;;7.55;1.63;;;;;;;12.50;100.00;102065.34;5033144;28;20029;-70
2022/10/06 00:41:55;;;;;;;10.82;2.35;;;;;;;12.47;100.00;102073.91;5033093;28;20047;-72
2022/10/06 00:44:20;;;;;;;12.75;2.22;;;;;;;12.42;100.00;102069.13;5031707;28;20022;-69
2022/10/06 00:46:49;;;;;;;7.70;1.83;;;;;;;12.43;100.00;102078.94;5031006;28;20080;-71
2022/10/06 00:49:38;;;;;;;7.95;2.00;;;;;;;12.45;100.00;102082.28;5032929;28;20022;-70
2022/10/06 00:52:10;;;;;;;8.43;2.15;;;;;;;12.41;100.00;102076.44;5028860;28;20037;-70
2022/10/06 00:54:37;;;;;;;12.20;2.13;;;;;;;12.39;100.00;102093.97;5033036;28;20025;-70
2022/10/06 00:57:03;;;;;;;10.20;2.00;;;;;;;12.38;100.00;102085.00;5014508;28;20113;-71
2022/10/06 00:59:29;;;;;;;8.38;1.90;;;;;;;12.35;100.00;102087.25;5032378;28;20030;-69
2022/10/06 01:02:06;;;;;;;8.65;1.98;;;;;;;12.36;100.00;102089.78;5030737;28;20033;-71
2022/10/06 01:04:34;;;;;;;8.75;2.40;;;;;;;12.31;100.00;102097.72;5032960;28;20036;-72
2022/10/06 01:07:00;;;;;;;12.32;2.00;;;;;;;12.35;100.00;102100.84;5027247;28;20076;-70
2022/10/06 01:09:27;;;;;;;12.02;2.00;;;;;;;12.30;100.00;102095.19;5031091;28;20033;-69
2022/10/06 01:11:56;;;;;;;13.82;1.98;;;;;;;12.28;100.00;102110.88;5031228;28;20460;-71
2022/10/06 01:14:23;;;;;;;11.23;2.45;;;;;;;12.32;100.00;102120.25;5014317;28;20038;-71
2022/10/06 01:16:54;;;;;;;9.73;2.10;;;;;;;12.26;100.00;102121.06;5021167;28;20017;-73
2022/10/06 01:19:43;;;;;;;8.65;1.95;;;;;;;12.28;100.00;102130.69;5012480;28;20436;-69
2022/10/06 01:22:12;;;;;;;10.82;1.92;;;;;;;12.21;100.00;102138.81;5008711;28;20453;-69
2022/10/06 01:24:37;;;;;;;14.13;2.05;;;;;;;12.19;100.00;102130.03;5013230;28;20040;-68
2022/10/06 01:27:04;;;;;;;7.70;2.22;;;;;;;12.17;100.00;102140.28;5031749;28;20108;-71
2022/10/06 01:29:34;;;;;;;7.60;1.98;;;;;;;12.16;100.00;102141.31;5032334;28;20034;-71
2022/10/06 01:32:00;;;;;;;11.73;2.25;;;;;;;12.18;100.00;102141.94;5032520;28;20032;-68
2022/10/06 01:34:26;;;;;;;6.47;1.70;;;;;;;12.17;100.00;102142.97;5013698;28;20033;-72
2022/10/06 01:36:52;;;;;;;8.07;2.30;;;;;;;12.15;100.00;102149.66;5027855;28;20034;-70
2022/10/06 01:39:17;;;;;;;10.23;2.22;;;;;;;12.13;100.00;102149.84;5012293;28;20113;-71
2022/10/06 01:41:46;;;;;;;7.30;1.83;;;;;;;12.12;100.00;102160.91;5012711;28;20334;-72
2022/10/06 01:44:11;;;;;;;13.90;2.42;;;;;;;12.09;100.00;102159.44;5012488;28;20113;-72
2022/10/06 01:46:37;;;;;;;11.77;2.00;;;;;;;12.12;100.00;102169.88;5025774;28;20068;-73
2022/10/06 01:49:02;;;;;;;11.38;2.20;;;;;;;12.09;100.00;102170.28;5032655;28;20049;-72
2022/10/06 01:51:27;;;;;;;9.27;2.17;;;;;;;12.12;100.00;102164.44;5031815;28;20381;-69
2022/10/06 01:53:53;;;;;;;10.50;1.80;;;;;;;12.11;100.00;102173.66;5032136;28;20021;-74
2022/10/06 01:56:20;;;;;;;9.00;2.20;;;;;;;12.07;100.00;102179.69;5027612;28;20102;-71
2022/10/06 01:58:45;;;;;;;8.93;2.45;;;;;;;12.08;100.00;102178.63;5032091;28;20017;-70
2022/10/06 02:01:10;;;;;;;9.80;2.40;;;;;;;12.07;100.00;102182.41;5029404;28;20475;-69
2022/10/06 02:03:37;;;;;;;11.27;2.95;;;;;;;12.02;100.00;102189.25;5032108;28;20022;-71
2022/10/06 02:06:03;;;;;;;9.85;2.28;;;;;;;12.06;100.00;102181.53;5023592;28;20032;-74
2022/10/06 02:08:28;;;;;;;15.07;2.58;;;;;;;11.99;100.00;102186.13;5012022;28;20100;-72
2022/10/06 02:10:53;;;;;;;12.95;2.30;;;;;;;11.96;100.00;102176.50;5011172;28;20113;-72
2022/10/06 02:13:20;;;;;;;10.15;2.30;;;;;;;11.93;100.00;102192.34;5010903;28;20026;-70
2022/10/06 02:15:45;;;;;;;16.20;2.55;;;;;;;11.88;100.00;102188.34;5013163;28;20117;-69
2022/10/06 02:18:10;;;;;;;12.13;2.33;;;;;;;11.88;100.00;102196.47;5012038;28;20165;-69
2022/10/06 02:20:36;;;;;;;13.95;2.70;;;;;;;11.91;100.00;102206.06;5024215;28;20033;-69
2022/10/06 02:23:01;;;;;;;13.25;2.75;;;;;;;11.84;100.00;102200.63;5032499;28;20091;-71
2022/10/06 02:25:26;;;;;;;11.88;2.70;;;;;;;11.83;100.00;102204.34;5034646;28;20481;-70
2022/10/06 02:27:53;;;;;;;14.88;3.13;;;;;;;11.78;100.00;102209.56;5034426;28;20112;-68
2022/10/06 02:30:19;;;;;;;14.10;3.55;;;;;;;11.78;100.00;102217.69;5035513;28;20094;-70
2022/10/06 02:32:44;;;;;;;9.88;2.53;;;;;;;11.79;100.00;102222.09;5035636;28;20448;-71
2022/10/06 02:35:14;;;;;;;13.65;3.00;;;;;;;11.72;100.00;102229.34;5035018;28;20021;-72
2022/10/06 02:37:43;;;;;;;13.80;2.28;;;;;;;11.68;100.00;102226.19;5050840;28;20021;-69
2022/10/06 02:40:08;;;;;;;10.18;2.53;;;;;;;11.66;100.00;102227.41;5030392;28;20061;-72
2022/10/06 02:42:36;;;;;;;14.07;2.83;;;;;;;11.64;100.00;102227.63;5025159;28;20416;-72
2022/10/06 02:45:05;;;;;;;15.15;2.28;;;;;;;11.61;100.00;102238.84;5035571;28;20032;-70
2022/10/06 02:47:31;;;;;;;12.20;2.10;;;;;;;11.60;100.00;102241.78;5034191;28;20114;-73
2022/10/06 02:50:00;;;;;;;16.40;2.50;;;;;;;11.59;100.00;102248.22;5033882;28;20106;-69
2022/10/06 02:52:32;;;;;;;13.93;2.75;;;;;;;11.58;100.00;102249.25;5034776;28;20022;-73
2022/10/06 02:54:57;;;;;;;;;;;;;;;11.67;100.00;102254.34;5035507;28;20017;-70
2022/10/06 02:57:22;;;;;;;12.65;2.40;;;;;;;11.56;100.00;102256.75;5016516;28;20359;-69
2022/10/06 02:59:47;;;;;;;12.48;2.42;;;;;;;11.52;100.00;102259.84;5015119;28;20022;-71
2022/10/06 03:02:13;;;;;;;15.50;3.05;;;;;;;11.50;100.00;102264.66;5011136;28;20034;-70
2022/10/06 03:04:38;;;;;;;12.88;2.25;;;;;;;11.47;100.00;102264.19;5030542;28;20026;-70
2022/10/06 03:07:03;;;;;;;12.52;2.15;;;;;;;11.42;100.00;102272.91;5015173;28;20057;-71
2022/10/06 03:09:29;;;;;;;13.27;2.63;;;;;;;11.39;100.00;102278.72;5014898;28;20473;-70
2022/10/06 03:11:54;;;;;;;13.02;2.40;;;;;;;11.39;100.00;102289.56;5013714;28;20010;-71
2022/10/06 03:14:19;;;;;;;14.48;2.63;;;;;;;11.34;100.00;102287.44;5014989;28;20499;-72
2022/10/06 03:16:45;;;;;;;10.27;2.25;;;;;;;11.33;100.00;102290.34;5030103;28;20025;-72
2022/10/06 03:19:10;;;;;;;8.85;2.20;;;;;;;11.30;100.00;102290.72;5014773;28;20458;-70
2022/10/06 03:21:39;;;;;;;14.48;2.42;;;;;;;11.29;100.00;102291.75;5014440;28;20033;-71
2022/10/06 03:24:04;;;;;;;16.92;2.80;;;;;;;11.26;100.00;102300.28;5013361;28;20037;-71
2022/10/06 03:26:35;;;;;;;12.45;2.53;;;;;;;11.23;100.00;102298.81;5014213;28;20038;-73
2022/10/06 03:29:02;;;;;;;15.30;2.67;;;;;;;11.20;100.00;102303.75;5030510;28;20461;-71
2022/10/06 03:31:28;;;;;;;18.17;2.80;;;;;;;11.16;100.00;102306.84;5032770;28;20049;-69
2022/10/06 03:33:55;;;;;;;15.48;3.30;;;;;;;11.12;100.00;102310.97;5034414;28;20257;-71
2022/10/06 03:36:22;;;;;;;12.45;2.47;;;;;;;11.10;100.00;102307.63;5023846;28;20524;-72
2022/10/06 03:38:48;;;;;;;16.27;3.25;;;;;;;11.09;100.00;102314.06;5014784;28;20032;-71
2022/10/06 03:41:19;;;;;;;9.55;2.20;;;;;;;11.08;100.00;102325.09;5014733;28;20372;-70
2022/10/06 03:43:46;;;;;;;14.27;2.50;;;;;;;11.04;100.00;102324.66;5014368;28;20030;-71
2022/10/06 03:46:13;;;;;;;11.07;2.70;;;;;;;11.03;100.00;102332.97;5014097;28;20053;-71
2022/10/06 03:48:38;;;;;;;18.20;3.00;;;;;;;10.98;100.00;102328.13;5016591;28;20397;-72
2022/10/06 03:51:05;;;;;;;17.77;3.25;;;;;;;10.98;100.00;102336.25;5026284;28;20052;-73
2022/10/06 03:53:32;;;;;;;15.60;2.75;;;;;;;10.98;100.00;102341.69;5033474;28;20474;-72
2022/10/06 03:56:10;;;;;;;13.32;3.35;;;;;;;10.96;100.00;102339.16;5032899;28;20476;-73
2022/10/06 03:58:38;;;;;;;11.60;2.63;;;;;;;10.88;100.00;102347.38;5033998;28;20044;-72
2022/10/06 04:01:07;;;;;;;12.20;2.80;;;;;;;10.86;100.00;102357.56;5017714;28;20083;-72
2022/10/06 04:03:33;;;;;;;12.85;2.88;;;;;;;10.85;100.00;102352.34;5014200;28;20446;-74
2022/10/06 04:06:01;;;;;;;13.35;3.15;;;;;;;10.80;100.00;102361.88;5014319;28;20030;-69
2022/10/06 04:08:28;;;;;;;15.00;3.38;;;;;;;10.75;100.00;102358.91;5014126;28;20018;-71
2022/10/06 04:10:54;;;;;;;13.27;3.42;;;;;;;10.77;100.00;102367.66;5030417;28;20038;-71
2022/10/06 04:13:20;;;;;;;17.15;3.35;;;;;;;10.75;100.00;102374.28;5018648;28;20031;-70
2022/10/06 04:15:47;;;;;;;17.55;3.00;;;;;;;10.71;100.00;102384.66;5033722;28;20038;-73
2022/10/06 04:18:13;;;;;;;16.23;3.13;;;;;;;10.63;100.00;102379.38;5032511;28;20068;-71
2022/10/06 04:20:39;;;;;;;15.63;2.80;;;;;;;10.64;100.00;102383.75;5028330;28;20034;-71
2022/10/06 04:23:05;;;;;;;17.95;3.38;;;;;;;10.60;100.00;102382.47;5013952;28;20536;-72
2022/10/06 04:25:32;;;;;;;11.18;2.63;;;;;;;10.60;100.00;102387.88;5013681;28;20034;-73
2022/10/06 04:27:57;;;;;;;16.65;3.55;;;;;;;10.60;100.00;102393.28;5045602;28;20113;-69
2022/10/06 04:30:23;;;;;;;15.15;2.85;;;;;;;10.58;100.00;102390.75;5013264;28;20163;-70
2022/10/06 04:32:48;;;;;;;19.45;3.58;;;;;;;10.59;100.00;102402.41;5027959;28;20014;-74
2022/10/06 04:35:14;;;;;;;15.57;3.35;;;;;;;10.55;100.00;102406.53;5016892;28;20026;-70
2022/10/06 04:37:39;;;;;;;18.33;3.55;;;;;;;10.52;100.00;102402.31;5011860;28;20036;-74
2022/10/06 04:40:05;;;;;;;17.25;2.58;;;;;;;10.50;100.00;102404.38;5017859;28;20036;-71
2022/10/06 04:42:31;;;;;;;14.00;3.00;;;;;;;10.49;100.00;102408.09;5025355;28;20041;-73
2022/10/06 04:44:56;;;;;;;16.83;2.92;;;;;;;10.46;100.00;102409.34;5016578;28;20053;-76
2022/10/06 04:47:21;;;;;;;18.70;3.40;;;;;;;10.46;100.00;102419.28;5030563;28;20098;-74
2022/10/06 04:49:46;;;;;;;11.13;2.88;;;;;;;10.40;100.00;102418.19;5033251;28;20031;-73
2022/10/06 04:52:12;;;;;;;16.85;3.20;;;;;;;10.37;100.00;102421.28;5032626;28;20021;-69
2022/10/06 04:54:37;;;;;;;13.88;3.03;;;;;;;10.36;100.00;102424.16;5032922;28;20408;-74
2022/10/06 04:57:04;;;;;;;17.02;3.20;;;;;;;10.34;100.00;102423.50;5032196;28;20030;-75
2022/10/06 05:02:14;;;;;;;16.17;3.30;;;;;;;10.29;100.00;102432.97;5030772;28;20496;-74
2022/10/06 05:04:39;;;;;;;14.10;2.88;;;;;;;10.29;100.00;102442.97;5020455;28;20026;-75
2022/10/06 05:07:05;;;;;;;18.92;3.42;;;;;;;10.22;100.00;102450.13;5013458;28;20034;-74
2022/10/06 05:09:30;;;;;;;15.65;3.25;;;;;;;10.20;100.00;102452.19;5026492;28;20092;-74
2022/10/06 05:11:55;;;;;;;20.17;3.45;;;;;;;10.15;100.00;102454.59;5032496;28;20026;-72
2022/10/06 05:14:21;;;;;;;15.45;3.03;;;;;;;10.16;100.00;102458.97;5024375;28;20030;-73
2022/10/06 05:16:46;;;;;;;21.17;3.25;;;;;;;10.15;100.00;102462.72;5013238;28;20113;-74
2022/10/06 05:19:11;;;;;;;17.92;3.88;;;;;;;10.14;100.00;102463.72;5013086;28;20030;-71
2022/10/06 05:21:37;;;;;;;20.83;3.60;;;;;;;10.09;100.00;102466.97;5012857;28;20342;-69
2022/10/06 05:24:02;;;;;;;23.08;4.00;;;;;;;10.10;100.00;102463.25;5013499;28;20065;-72
2022/10/06 05:26:30;;;;;;;15.10;3.47;;;;;;;10.08;100.00;102476.97;5012827;28;20032;-73
2022/10/06 05:28:56;;;;;;;18.60;3.53;;;;;;;10.05;100.00;102471.06;5024803;28;20408;-71
2022/10/06 05:31:25;;;;;;;16.90;3.40;;;;;;;10.03;100.00;102486.66;5014461;28;20457;-74
2022/10/06 05:33:51;;;;;;;19.17;3.80;;;;;;;10.05;100.00;102490.81;5012582;28;20437;-71
2022/10/06 05:36:19;;;;;;;22.42;4.18;;;;;;;10.03;100.00;102483.94;5012569;28;20105;-71
2022/10/06 05:38:45;;;;;;;16.98;4.05;;;;;;;10.01;100.00;102503.06;5012306;28;20464;-74
2022/10/06 05:41:18;;;;;;;20.65;3.00;;;;;;;9.98;100.00;102503.41;5011470;28;20021;-72
2022/10/06 05:43:44;;;;;;;17.17;3.45;;;;;;;9.97;100.00;102514.41;5012789;28;20042;-71
2022/10/06 05:46:19;;;;;;;17.13;3.03;;;;;;;9.95;100.00;102520.00;5013161;28;20029;-75
2022/10/06 05:48:56;;;;;;;23.05;3.53;;;;;;;9.98;100.00;102519.66;5010530;28;20121;-70
2022/10/06 05:51:24;;;;;;;16.73;3.47;;;;;;;9.90;100.00;102516.97;5027377;28;20021;-75
2022/10/06 05:53:50;;;;;;;18.48;3.22;;;;;;;9.86;100.00;102521.91;5031827;28;20087;-72
2022/10/06 05:56:17;;;;;;;21.25;3.10;;;;;;;9.87;100.00;102520.91;5033105;28;20021;-70
2022/10/06 05:58:45;;;;;;;14.60;3.25;;;;;;;9.86;100.00;102527.31;5021814;28;20034;-70
2022/10/06 06:01:13;;;;;;;20.35;4.78;;;;;;;9.85;100.00;102527.50;5014226;28;20030;-72
2022/10/06 06:03:40;;;;;;;16.33;3.80;;;;;;;9.86;100.00;102531.91;5016001;28;20361;-73
2022/10/06 06:06:20;;;;;;;17.98;3.78;;;;;;;9.88;100.00;102537.97;5024129;28;20029;-71
2022/10/06 06:08:50;;;;;;;21.05;3.50;;;;;;;9.82;100.00;102541.38;5033296;28;20055;-75
2022/10/06 06:11:15;;;;;;;18.38;3.80;;;;;;;9.81;100.00;102543.22;5016008;28;20037;-71
2022/10/06 06:13:41;;;;;;;19.55;3.38;;;;;;;9.81;100.00;102555.91;5016163;28;20377;-73
2022/10/06 06:16:11;;;;;;;21.40;3.97;;;;;;;9.85;100.00;102558.06;5019830;28;20104;-73
2022/10/06 06:18:36;;;;;;;23.08;3.85;;;;;;;9.83;100.00;102551.16;5035577;28;20472;-76
2022/10/06 06:21:04;;;;;;;22.33;4.45;;;;;;;9.84;100.00;102555.56;5035760;28;20025;-71
2022/10/06 06:23:36;;;;;;;17.25;3.22;;;;;;;9.82;100.00;102552.19;5034198;28;20064;-69
2022/10/06 06:26:05;;;;;;;21.88;3.83;;;;;;;9.82;100.00;102565.72;5035938;28;20026;-72
2022/10/06 06:28:32;;;;;;;15.80;3.20;;;;;;;9.83;100.00;102561.97;5034306;28;20074;-71
2022/10/06 06:31:08;;;;;;;17.55;3.25;;;;;;;9.85;100.00;102565.34;5032811;28;20029;-69
2022/10/06 06:33:36;;;;;;;20.55;3.92;;;;;;;9.86;100.00;102564.34;5015819;28;20040;-67
2022/10/06 06:36:03;;;;;;;25.80;5.32;;;;;;;9.89;100.00;102569.41;5015953;28;20018;-70
2022/10/06 06:38:30;;;;;;;22.27;3.85;;;;;;;9.91;100.00;102575.47;5015684;28;20033;-70
2022/10/06 06:40:55;;;;;;;19.27;3.58;;;;;;;9.91;100.00;102579.00;5015838;28;20194;-67
2022/10/06 06:43:21;;;;;;;17.38;3.50;;;;;;;9.97;100.00;102585.56;5015809;28;20522;-71
2022/10/06 06:45:47;;;;;;;16.85;3.60;;;;;;;9.97;100.00;102582.03;5015261;28;20057;-70
2022/10/06 06:48:15;;;;;;;22.85;3.90;;;;;;;9.97;100.00;102590.13;5015758;28;20025;-69
2022/10/06 06:50:42;;;;;;;19.35;3.58;;;;;;;10.00;100.00;102597.91;5015561;28;20028;-70
2022/10/06 06:53:07;;;;;;;20.00;4.07;;;;;;;10.01;100.00;102596.84;5015630;28;20464;-70
2022/10/06 06:55:32;;;;;;;21.48;4.22;;;;;;;10.05;100.00;102601.72;5014876;28;20049;-70
2022/10/06 06:57:57;;;;;;;22.38;3.97;;;;;;;10.06;100.00;102594.47;5015794;28;20038;-68
2022/10/06 07:00:23;;;;;;;23.40;3.88;;;;;;;10.08;100.00;102609.50;5014859;28;20441;-71
2022/10/06 07:02:54;;;;;;;19.92;4.25;;;;;;;10.14;100.00;102612.50;5013750;28;20037;-69
2022/10/06 07:05:20;;;;;;;;;;;;;;;10.26;100.00;102616.50;5015843;28;20036;-70
2022/10/06 07:07:45;;;;;;;21.30;4.45;;;;;;;10.22;100.00;102623.25;5014208;28;20328;-69
2022/10/06 07:10:11;;;;;;;21.77;3.72;;;;;;;10.23;100.00;102623.09;5015429;28;20029;-69
2022/10/06 07:12:36;;;;;;;14.35;3.60;;;;;;;10.25;100.00;102631.88;5015015;28;20034;-68
2022/10/06 07:26:01;;;;;;;18.00;3.53;;;;;;;10.49;100.00;102645.44;5014823;28;20040;-70
2022/10/06 07:28:29;;;;;;;21.08;3.88;;;;;;;10.53;100.00;102646.78;5015006;28;20022;-70
2022/10/06 07:30:55;;;;;;;24.10;4.07;;;;;;;10.58;100.00;102647.06;5014942;28;20022;-70
2022/10/06 07:33:20;;;;;;;20.95;4.10;;;;;;;10.64;100.00;102657.19;5014859;28;20072;-68
2022/10/06 07:35:45;;;;;;;16.30;3.63;;;;;;;10.64;100.00;102665.28;5016594;28;20025;-69
2022/10/06 07:38:11;;;;;;;18.40;3.95;;;;;;;10.69;100.00;102668.31;5034588;28;20119;-67
2022/10/06 07:40:36;;;;;;;21.63;4.20;;;;;;;10.74;100.00;102681.31;5022864;28;20037;-69
2022/10/06 07:43:02;;;;;;;17.25;4.22;;;;;;;10.79;100.00;102678.91;5013428;28;20022;-69
2022/10/06 07:45:37;;;;;;;18.80;3.55;;;;;;;10.87;100.00;102670.72;5014439;28;20057;-71
2022/10/06 07:48:09;;;;;;;22.75;4.15;;;;;;;10.91;100.00;102676.59;5013453;28;20445;-69
2022/10/06 07:50:37;;;;;;;21.30;3.97;;;;;;;10.99;100.00;102690.06;5013949;28;20054;-70
2022/10/06 07:53:07;;;;;;;28.33;5.07;;;;;;;11.03;100.00;102694.09;5014663;28;20065;-69
2022/10/06 07:55:33;;;;;;;15.38;3.13;;;;;;;11.08;100.00;102690.84;5014239;28;20050;-69
2022/10/06 07:57:58;;;;;;;18.35;4.00;;;;;;;11.12;100.00;102695.69;5014390;28;20088;-69
2022/10/06 08:00:26;;;;;;;19.73;4.35;;;;;;;11.15;100.00;102698.03;5013824;28;20021;-71
2022/10/06 08:02:53;;;;;;;21.75;3.63;;;;;;;11.24;100.00;102698.81;5012861;28;20068;-69
2022/10/06 08:05:19;;;;;;;15.68;3.53;;;;;;;11.31;100.00;102699.78;5013007;28;20057;-69
2022/10/06 08:07:44;;;;;;;20.20;3.83;;;;;;;11.33;100.00;102703.13;5013974;28;20160;-70
2022/10/06 08:10:09;;;;;;;17.33;3.63;;;;;;;11.41;100.00;102702.19;5014160;28;20096;-68
2022/10/06 08:12:39;;;;;;;21.25;3.35;;;;;;;11.44;100.00;102707.25;5016397;28;20026;-68
2022/10/06 08:15:06;;;;;;;15.13;3.97;;;;;;;11.50;100.00;102714.66;5014062;28;20025;-68
2022/10/06 08:17:33;;;;;;;21.55;3.83;;;;;;;11.57;100.00;102714.75;5014095;28;20061;-70
2022/10/06 08:19:58;;;;;;;23.90;3.53;;;;;;;11.62;100.00;102715.03;5014199;28;20037;-68
2022/10/06 08:22:28;;;;;;;23.20;4.40;;;;;;;11.68;100.00;102727.00;5013694;28;20045;-69
2022/10/06 08:24:57;;;;;;;18.42;3.45;;;;;;;11.70;100.00;102724.97;5012321;28;20412;-69
2022/10/06 08:27:27;;;;;;;18.02;3.70;;;;;;;11.77;100.00;102725.88;5014266;28;20061;-71
2022/10/06 08:29:53;;;;;;;16.02;3.25;;;;;;;11.80;100.00;102736.34;5013333;28;20072;-69
2022/10/06 08:32:19;;;;;;;18.75;3.55;;;;;;;11.87;100.00;102731.88;5013878;28;20022;-69
2022/10/06 08:34:44;;;;;;;18.25;3.15;;;;;;;11.96;100.00;102748.09;5027107;28;20059;-70
2022/10/06 08:37:10;;;;;;;18.27;4.50;;;;;;;12.02;100.00;102740.03;5033511;28;20025;-69
2022/10/06 08:39:35;;;;;;;19.95;4.05;;;;;;;12.07;100.00;102746.78;5033081;28;20032;-71
2022/10/06 08:42:00;;;;;;;19.55;4.15;;;;;;;12.10;100.00;102752.66;5032081;28;20105;-69
2022/10/06 08:44:39;;;;;;;25.27;3.88;;;;;;;12.18;100.00;102747.16;5033298;28;20349;-69
2022/10/06 08:47:13;;;;;;;21.00;4.25;;;;;;;12.31;100.00;102745.63;5033236;28;20057;-68
2022/10/06 08:49:43;;;;;;;18.73;3.78;;;;;;;12.31;100.00;102751.88;5031649;28;20113;-70
2022/10/06 08:52:35;;;;;;;19.15;3.50;;;;;;;12.39;100.00;102745.50;5033075;28;20040;-70
2022/10/06 08:55:26;;;;;;;15.55;3.40;;;;;;;12.45;100.00;102757.50;5033192;28;20025;-70
2022/10/06 08:58:29;;;;;;;14.25;3.05;;;;;;;12.53;100.00;102757.34;5032834;28;20060;-71
2022/10/06 09:01:00;;;;;;;17.55;3.17;;;;;;;12.59;100.00;102759.31;5030330;28;20029;-69
2022/10/06 09:03:28;;;;;;;16.05;3.60;;;;;;;12.67;100.00;102764.63;5031767;28;20017;-70
2022/10/06 09:06:07;;;;;;;15.98;3.42;;;;;;;12.72;97.43;102767.59;5032648;28;20041;-68
2022/10/06 09:08:49;;;;;;;15.00;2.78;;;;;;;12.75;99.44;102772.66;5029610;28;20658;-68
2022/10/06 09:11:24;;;;;;;18.05;3.67;;;;;;;12.83;100.00;102774.44;5012651;28;20053;-71
2022/10/06 09:14:02;;;;;;;14.43;3.33;;;;;;;12.90;97.85;102780.75;5012765;28;20084;-71
2022/10/06 09:16:34;;;;;;;21.23;3.30;;;;;;;12.99;99.00;102789.63;5013133;28;20108;-67
2022/10/06 09:19:19;;;;;;;15.45;2.80;;;;;;;13.01;95.89;102792.16;5012776;28;20053;-71
2022/10/06 09:21:52;;;;;;;16.08;3.20;;;;;;;13.10;94.68;102796.41;5012443;28;20096;-71
2022/10/06 09:24:31;;;;;;;18.52;4.22;;;;;;;13.10;90.31;102790.97;5012641;28;20052;-71
2022/10/06 09:26:57;;;;;;;12.82;2.75;;;;;;;13.09;90.88;102797.47;5012748;28;20036;-71
2022/10/06 09:29:24;;;;;;;17.30;3.13;;;;;;;13.11;93.58;102798.13;5012938;28;20030;-70
2022/10/06 09:31:50;;;;;;;14.05;3.10;;;;;;;13.13;88.21;102790.59;5018885;28;20025;-68
2022/10/06 09:34:29;;;;;;;17.83;3.08;;;;;;;13.18;92.31;102796.31;5032605;28;20033;-69
2022/10/06 09:37:03;;;;;;;16.70;3.30;;;;;;;13.23;91.40;102806.59;5031163;28;20444;-71
2022/10/06 09:39:35;;;;;;;16.13;3.22;;;;;;;13.28;91.64;102804.94;5031217;28;20027;-69
2022/10/06 09:42:02;;;;;;;15.63;3.40;;;;;;;13.29;86.67;102814.78;5032641;28;20025;-69
2022/10/06 09:44:35;;;;;;;18.98;3.58;;;;;;;13.34;88.41;102821.56;5032501;28;20025;-71
2022/10/06 09:47:00;;;;;;;17.27;3.25;;;;;;;13.36;84.90;102819.50;5032291;28;20029;-70
2022/10/06 09:49:26;;;;;;;18.17;3.10;;;;;;;13.38;85.61;102814.72;5032749;28;20099;-71
2022/10/06 09:51:59;;;;;;;17.10;3.08;;;;;;;13.45;84.94;102815.59;5032155;28;20175;-68
2022/10/06 09:54:27;;;;;;;14.07;3.30;;;;;;;13.54;83.58;102813.56;5026697;28;20132;-70
2022/10/06 09:56:54;;;;;;;14.57;2.88;;;;;;;13.56;82.93;102822.41;5012417;28;20026;-71
2022/10/06 09:59:30;;;;;;;15.77;3.17;;;;;;;13.59;84.83;102822.84;5012660;28;20033;-71
2022/10/06 10:01:58;;;;;;;18.25;3.22;;;;;;;13.67;82.62;102821.03;5009900;28;20034;-69
2022/10/06 10:04:29;;;;;;;15.40;3.30;;;;;;;13.68;80.20;102817.25;5012293;28;20454;-71
2022/10/06 10:07:23;;;;;;;15.90;3.07;;;;;;;13.73;83.79;102820.22;5012152;28;20393;-71
2022/10/06 10:09:48;;;;;;;16.58;3.00;;;;;;;13.75;78.06;102812.69;5012313;28;20014;-69
2022/10/06 10:12:28;;;;;;;13.65;2.35;;;;;;;13.80;78.02;102821.13;5012432;28;20026;-71
2022/10/06 10:15:00;;;;;;;12.63;2.92;;;;;;;13.83;78.18;102824.28;5012390;28;20021;-70
2022/10/06 10:17:31;;;;;;;9.52;2.28;;;;;;;13.81;76.93;102820.06;5012039;28;20461;-68
2022/10/06 10:19:57;;;;;;;15.55;3.30;;;;;;;13.90;79.92;102818.88;5012247;28;20030;-69
2022/10/06 10:22:29;;;;;;;11.45;2.45;;;;;;;13.96;75.29;102826.22;5020063;28;20053;-72
2022/10/06 10:25:13;;;;;;;12.07;2.85;;;;;;;14.04;76.37;102824.41;5012163;28;20055;-69
2022/10/06 10:27:57;;;;;;;14.63;2.92;;;;;;;14.09;76.87;102827.38;5012478;28;20468;-69
2022/10/06 10:30:22;;;;;;;13.18;2.22;;;;;;;14.13;73.94;102813.16;5012426;28;20030;-71
2022/10/06 10:33:11;;;;;;;16.70;3.63;;;;;;;14.20;75.85;102829.53;5012016;28;20033;-68
2022/10/06 10:35:41;;;;;;;9.52;2.00;;;;;;;14.24;70.63;102819.91;5012092;28;20022;-70
2022/10/06 10:38:25;;;;;;;8.02;2.13;;;;;;;14.28;68.42;102826.66;5012509;28;20025;-70
2022/10/06 10:41:18;;;;;;;8.90;2.20;;;;;;;14.25;70.88;102826.19;5010880;28;20377;-68
2022/10/06 10:43:46;;;;;;;13.20;2.60;;;;;;;14.20;68.13;102815.91;5013087;28;20480;-69
2022/10/06 10:46:38;;;;;;;9.60;2.08;;;;;;;14.27;69.31;102830.41;5015817;28;20033;-69
2022/10/06 10:49:10;;;;;;;11.10;2.45;;;;;;;14.31;68.05;102826.25;5015567;28;20564;-68
2022/10/06 10:51:59;;;;;;;15.52;1.95;;;;;;;14.42;68.54;102819.38;5015621;28;20029;-70
2022/10/06 10:54:48;;;;;;;14.70;2.97;;;;;;;14.40;66.11;102828.78;5015669;28;20072;-68
2022/10/06 10:57:19;;;;;;;13.10;2.63;;;;;;;14.40;65.44;102826.06;5013874;28;20045;-69
2022/10/06 11:00:02;;;;;;;12.02;2.50;;;;;;;14.40;66.83;102832.34;5015125;28;20048;-70
2022/10/06 11:02:29;;;;;;;13.50;2.63;;;;;;;14.49;67.40;102827.56;5013063;28;20026;-70
2022/10/06 11:05:32;;;;;;;11.68;2.75;;;;;;;14.58;69.54;102831.78;5015101;28;20516;-70
2022/10/06 11:08:17;;;;;;;10.75;2.80;;;;;;;14.68;71.53;102834.19;5015157;28;20334;-69
2022/10/06 11:10:50;;;;;;;15.55;2.72;;;;;;;14.68;65.98;102826.84;5015371;28;20480;-68
2022/10/06 11:13:22;;;;;;;8.60;2.28;;;;;;;14.70;67.21;102830.22;5015425;28;20022;-69
2022/10/06 11:16:06;;;;;;;15.63;3.40;;;;;;;14.75;67.40;102839.66;5013826;28;20365;-69
2022/10/06 11:18:53;;;;;;;13.48;2.55;;;;;;;14.82;68.80;102837.78;5014021;28;20038;-69
2022/10/06 11:21:23;;;;;;;14.23;3.03;;;;;;;14.82;66.10;102840.53;5015220;28;20342;-68
2022/10/06 11:24:17;;;;;;;12.70;3.00;;;;;;;14.87;65.75;102840.72;5014324;28;20077;-70
2022/10/06 11:27:08;;;;;;;9.68;2.80;;;;;;;14.96;66.01;102838.66;5015207;28;20170;-69
2022/10/06 11:29:55;;;;;;;15.73;2.83;;;;;;;15.01;66.50;102849.81;5015212;28;20057;-69
2022/10/06 11:33:07;;;;;;;12.45;2.50;;;;;;;15.11;65.05;102838.50;5015225;28;20036;-69
2022/10/06 11:35:36;;;;;;;13.43;3.28;;;;;;;15.08;63.73;102831.56;4992699;28;20030;-69
2022/10/06 11:38:28;;;;;;;13.57;3.25;;;;;;;15.09;65.56;102827.78;4992496;28;20561;-68